createdAt,value
2023-04-13T00:03:37.557Z,7.40
2023-04-13T00:08:42.989Z,7.20
2023-04-13T00:13:47.596Z,7.20
2023-04-13T00:18:52.431Z,7.40
2023-04-13T00:23:54.841Z,7.10
2023-04-13T00:28:57.175Z,6.90
2023-04-13T00:34:00.796Z,6.90
2023-04-13T00:39:03.751Z,6.90
2023-04-13T00:44:09.021Z,6.80
2023-04-13T00:49:12.738Z,6.80
2023-04-13T00:54:16.905Z,6.90
2023-04-13T00:59:19.853Z,6.80
2023-04-13T01:04:26.060Z,6.70
2023-04-13T01:10:09.828Z,6.50
2023-04-13T01:15:15.046Z,6.50
2023-04-13T01:20:18.082Z,6.40
2023-04-13T01:25:39.439Z,6.40
2023-04-13T01:30:43.049Z,6.40
2023-04-13T01:35:46.613Z,6.40
2023-04-13T01:40:51.887Z,6.40
2023-04-13T01:46:04.902Z,6.40
2023-04-13T01:51:18.121Z,6.40
2023-04-13T01:56:24.353Z,6.40
2023-04-13T02:01:32.209Z,6.30
2023-04-13T02:06:36.959Z,6.40
2023-04-13T02:11:44.274Z,6.40
2023-04-13T02:16:46.710Z,6.50
2023-04-13T02:21:50.010Z,6.60
2023-04-13T02:26:53.691Z,6.60
2023-04-13T02:31:57.919Z,6.60
2023-04-13T02:37:00.910Z,6.50
2023-04-13T02:42:03.400Z,6.30
2023-04-13T02:47:07.652Z,6.30
2023-04-13T02:52:10.978Z,6.10
2023-04-13T02:57:25.231Z,5.90
2023-04-13T03:02:30.220Z,5.70
2023-04-13T03:07:34.246Z,5.60
2023-04-13T03:12:36.989Z,5.60
2023-04-13T03:17:41.461Z,5.50
2023-04-13T03:22:46.118Z,5.50
2023-04-13T03:27:48.308Z,5.40
2023-04-13T03:32:53.853Z,5.30
2023-04-13T03:38:00.110Z,5.30
2023-04-13T03:43:10.717Z,5.50
2023-04-13T03:48:20.082Z,5.70
2023-04-13T03:53:22.357Z,5.80
2023-04-13T03:58:28.032Z,5.70
2023-04-13T04:03:30.468Z,5.70
2023-04-13T04:08:37.832Z,5.60
2023-04-13T04:13:44.791Z,5.60
2023-04-13T04:18:47.496Z,5.60
2023-04-13T04:23:53.868Z,5.70
2023-04-13T04:29:02.555Z,5.70
2023-04-13T04:34:07.357Z,5.60
2023-04-13T04:39:10.915Z,5.60
2023-04-13T04:44:25.382Z,5.50
2023-04-13T04:49:28.663Z,5.40
2023-04-13T04:54:32.062Z,5.50
2023-04-13T04:59:34.975Z,5.60
2023-04-13T05:04:39.707Z,5.70
2023-04-13T05:09:42.571Z,5.80
2023-04-13T05:14:48.204Z,6.00
2023-04-13T05:19:52.653Z,6.00
2023-04-13T05:25:01.862Z,6.10
2023-04-13T05:30:06.217Z,6.10
2023-04-13T05:35:12.141Z,6.10
2023-04-13T05:40:15.156Z,6.10
2023-04-13T05:45:18.075Z,6.20
2023-04-13T05:50:34.270Z,6.20
2023-04-13T05:55:37.205Z,6.40
2023-04-13T06:00:41.353Z,6.40
2023-04-13T06:05:48.449Z,6.30
2023-04-13T06:10:50.744Z,6.30
2023-04-13T06:15:55.889Z,6.40
2023-04-13T06:20:58.929Z,6.40
2023-04-13T06:26:03.720Z,6.50
2023-04-13T06:31:17.692Z,6.50
2023-04-13T06:36:22.665Z,6.60
2023-04-13T06:41:27.335Z,6.50
2023-04-13T06:46:46.356Z,6.50
2023-04-13T06:51:48.699Z,6.40
2023-04-13T06:56:51.765Z,6.40
2023-04-13T07:01:54.263Z,6.30
2023-04-13T07:06:56.966Z,6.30
2023-04-13T07:12:07.264Z,6.40
2023-04-13T07:17:11.968Z,6.60
2023-04-13T07:22:16.094Z,7.30
2023-04-13T07:27:19.619Z,7.80
2023-04-13T07:32:28.127Z,7.70
2023-04-13T07:37:33.027Z,7.50
2023-04-13T07:42:36.219Z,7.40
2023-04-13T07:47:38.640Z,7.30
2023-04-13T07:52:44.009Z,7.20
2023-04-13T07:57:46.480Z,7.10
2023-04-13T08:02:49.501Z,7.10
2023-04-13T08:07:56.689Z,7.10
2023-04-13T08:13:00.272Z,7.20
2023-04-13T08:18:03.853Z,7.60
2023-04-13T08:23:07.172Z,8.00
2023-04-13T08:28:09.725Z,8.10
2023-04-13T08:33:12.024Z,8.20
2023-04-13T08:38:14.314Z,8.20
2023-04-13T08:43:22.109Z,8.30
2023-04-13T08:48:24.522Z,8.20
2023-04-13T08:53:29.971Z,8.10
2023-04-13T08:58:35.334Z,7.60
2023-04-13T09:04:06.880Z,7.40
2023-04-13T09:09:15.028Z,7.20
2023-04-13T09:14:22.136Z,7.10
2023-04-13T09:19:32.715Z,7.10
2023-04-13T09:24:41.308Z,6.80
2023-04-13T09:29:52.316Z,6.30
2023-04-13T09:35:04.884Z,6.20
2023-04-13T09:40:15.229Z,6.40
2023-04-13T09:45:17.418Z,6.60
2023-04-13T09:50:28.906Z,6.70
2023-04-13T09:55:33.113Z,6.80
2023-04-13T10:00:38.401Z,7.00
2023-04-13T10:05:57.902Z,7.00
2023-04-13T10:11:04.195Z,7.10
2023-04-13T10:16:30.372Z,7.20
2023-04-13T10:21:40.060Z,7.50
2023-04-13T10:26:46.184Z,7.60
2023-04-13T10:31:51.516Z,8.30
2023-04-13T10:36:56.230Z,8.40
2023-04-13T10:42:02.825Z,8.50
2023-04-13T10:47:06.360Z,9.00
2023-04-13T10:52:11.027Z,9.50
2023-04-13T10:57:15.153Z,9.80
2023-04-13T11:02:18.297Z,9.80
2023-04-13T11:07:26.887Z,9.80
2023-04-13T11:12:29.103Z,9.80
2023-04-13T11:17:31.270Z,10.00
2023-04-13T11:22:36.440Z,10.00
2023-04-13T11:27:38.621Z,10.10
2023-04-13T11:32:43.387Z,10.90
2023-04-13T11:37:49.542Z,10.40
2023-04-13T11:42:54.715Z,9.40
2023-04-13T11:47:58.940Z,9.00
2023-04-13T11:53:01.772Z,8.80
2023-04-13T11:58:11.356Z,8.60
2023-04-13T12:08:25.968Z,9.00
2023-04-13T12:13:38.159Z,9.80
2023-04-13T12:18:46.094Z,10.40
2023-04-13T12:23:56.178Z,10.20
2023-04-13T12:29:01.913Z,10.40
2023-04-13T12:34:07.757Z,10.80
2023-04-13T12:39:09.953Z,11.40
2023-04-13T12:44:12.296Z,11.50
2023-04-13T12:49:14.645Z,11.50
2023-04-13T12:54:18.077Z,11.70
2023-04-13T12:59:23.128Z,11.00
2023-04-13T13:04:25.728Z,10.80
2023-04-13T13:09:28.177Z,11.30
2023-04-13T13:14:32.179Z,11.60
2023-04-13T13:19:34.416Z,11.70
2023-04-13T13:24:36.722Z,11.80
2023-04-13T13:29:38.855Z,12.10
2023-04-13T13:34:41.417Z,12.40
2023-04-13T13:39:43.569Z,12.00
2023-04-13T13:44:45.751Z,11.50
2023-04-13T13:49:47.881Z,12.30
2023-04-13T13:55:19.759Z,12.20
2023-04-13T14:00:23.165Z,11.60
2023-04-13T14:05:25.449Z,11.60
2023-04-13T14:10:28.357Z,12.50
2023-04-13T14:15:30.808Z,12.20
2023-04-13T14:20:34.272Z,12.00
2023-04-13T14:25:36.737Z,11.80
2023-04-13T14:30:41.953Z,11.90
2023-04-13T14:35:44.221Z,12.50
2023-04-13T14:40:46.658Z,12.90
2023-04-13T14:45:53.048Z,12.20
2023-04-13T14:50:56.455Z,11.80
2023-04-13T14:55:58.922Z,11.60
2023-04-13T15:01:01.486Z,11.70
2023-04-13T15:06:05.283Z,11.70
2023-04-13T15:11:08.664Z,11.50
2023-04-13T15:16:11.691Z,11.70
2023-04-13T15:21:13.883Z,11.80
2023-04-13T15:26:17.730Z,11.70
2023-04-13T15:31:22.177Z,11.60
2023-04-13T15:36:24.333Z,11.80
2023-04-13T15:41:27.745Z,12.20
2023-04-13T15:46:30.067Z,11.90
2023-04-13T15:51:32.289Z,11.70
2023-04-13T15:56:34.372Z,11.80
2023-04-13T16:01:47.236Z,11.80
2023-04-13T16:07:04.998Z,11.80
2023-04-13T16:12:12.231Z,11.80
2023-04-13T16:17:18.652Z,12.20
2023-04-13T16:22:20.786Z,12.20
2023-04-13T16:27:22.892Z,12.20
2023-04-13T16:32:25.239Z,12.00
2023-04-13T16:37:27.321Z,11.80
2023-04-13T16:42:29.498Z,11.50
2023-04-13T16:47:32.921Z,11.40
2023-04-13T16:52:38.714Z,11.20
2023-04-13T16:57:42.239Z,11.00
2023-04-13T17:02:44.512Z,11.40
2023-04-13T17:07:48.202Z,12.10
2023-04-13T17:12:50.533Z,11.90
2023-04-13T17:17:52.809Z,11.50
2023-04-13T17:22:55.041Z,11.10
2023-04-13T17:27:57.127Z,10.80
2023-04-13T17:32:59.253Z,10.70
2023-04-13T17:38:01.402Z,10.70
2023-04-13T17:43:05.704Z,10.60
2023-04-13T17:48:07.879Z,10.50
2023-04-13T17:53:10.403Z,10.30
2023-04-13T17:58:12.895Z,10.10
2023-04-13T18:03:15.218Z,10.30
2023-04-13T18:08:17.568Z,10.20
2023-04-13T18:13:20.000Z,10.30
2023-04-13T18:18:24.452Z,9.90
2023-04-13T18:23:26.547Z,9.60
2023-04-13T18:28:29.776Z,9.40
2023-04-13T18:33:32.548Z,9.40
2023-04-13T18:38:34.690Z,9.50
2023-04-13T18:43:36.967Z,9.40
2023-04-13T18:48:39.074Z,9.10
2023-04-13T18:53:41.921Z,8.60
2023-04-13T18:58:44.878Z,8.30
2023-04-13T19:03:47.211Z,8.20
2023-04-13T19:08:49.452Z,8.30
2023-04-13T19:13:51.748Z,8.20
2023-04-13T19:18:53.884Z,8.00
2023-04-13T19:23:56.772Z,8.00
2023-04-13T19:29:00.384Z,7.90
2023-04-13T19:34:02.740Z,7.80
2023-04-13T19:39:07.055Z,7.70
2023-04-13T19:44:09.178Z,7.70
2023-04-13T19:49:11.972Z,7.70
2023-04-13T19:54:14.121Z,7.60
2023-04-13T19:59:16.464Z,7.60
2023-04-13T20:04:18.663Z,7.60
2023-04-13T20:09:21.162Z,7.50
2023-04-13T20:14:23.407Z,7.50
2023-04-13T20:19:25.937Z,7.40
2023-04-13T20:24:28.069Z,7.30
2023-04-13T20:29:30.165Z,7.30
2023-04-13T20:34:34.984Z,7.20
2023-04-13T20:39:38.924Z,7.20
2023-04-13T20:44:44.717Z,7.10
2023-04-13T20:49:52.032Z,7.10
2023-04-13T20:54:57.031Z,7.10
2023-04-13T20:59:59.081Z,7.20
2023-04-13T21:05:03.264Z,7.20
2023-04-13T21:10:06.823Z,7.30
2023-04-13T21:15:09.391Z,7.30
2023-04-13T21:20:12.743Z,7.30
2023-04-13T21:25:14.853Z,7.30
2023-04-13T21:30:17.050Z,7.30
2023-04-13T21:35:19.564Z,7.30
2023-04-13T21:40:24.133Z,7.30
2023-04-13T21:45:26.260Z,7.20
2023-04-13T21:50:28.382Z,7.20
2023-04-13T21:55:30.646Z,7.20
2023-04-13T22:00:32.788Z,7.30
2023-04-13T22:05:34.913Z,7.30
2023-04-13T22:10:36.970Z,7.40
2023-04-13T22:15:39.185Z,7.40
2023-04-13T22:20:41.415Z,7.40
2023-04-13T22:25:51.309Z,7.40
2023-04-13T22:30:53.562Z,7.40
2023-04-13T22:35:55.615Z,7.50
2023-04-13T22:40:58.514Z,7.50
2023-04-13T22:46:01.150Z,7.50
2023-04-13T22:51:06.008Z,7.50
2023-04-13T22:56:08.117Z,7.50
2023-04-13T23:01:10.296Z,7.60
2023-04-13T23:06:12.389Z,7.60
2023-04-13T23:11:14.536Z,7.70
2023-04-13T23:16:16.731Z,7.70
2023-04-13T23:21:18.940Z,7.80
2023-04-13T23:26:21.330Z,7.80
2023-04-13T23:31:23.427Z,7.90
2023-04-13T23:36:26.447Z,8.00
2023-04-13T23:41:28.550Z,8.00
2023-04-13T23:46:30.705Z,8.00
2023-04-13T23:51:32.786Z,8.00
2023-04-13T23:56:35.023Z,8.10
